sensor_id;sensor_type;location;lat;lon;timestamp;P1;durP1;ratioP1;P2;durP2;ratioP2
11004;SDS011;5555;59.622;16.556;2023-02-22T00:00:49;3.13;;;2.50;;
11004;SDS011;5555;59.622;16.556;2023-02-22T00:03:21;3.37;;;2.80;;
11004;SDS011;5555;59.622;16.556;2023-02-22T00:05:50;3.90;;;2.97;;
11004;SDS011;5555;59.622;16.556;2023-02-22T00:08:28;2.87;;;2.53;;
11004;SDS011;5555;59.622;16.556;2023-02-22T00:10:59;2.83;;;2.50;;
11004;SDS011;5555;59.622;16.556;2023-02-22T00:13:26;2.90;;;2.50;;
11004;SDS011;5555;59.622;16.556;2023-02-22T00:15:56;2.70;;;2.40;;
11004;SDS011;5555;59.622;16.556;2023-02-22T00:18:23;2.60;;;2.20;;
11004;SDS011;5555;59.622;16.556;2023-02-22T00:20:52;2.70;;;2.47;;
11004;SDS011;5555;59.622;16.556;2023-02-22T00:23:20;3.13;;;2.50;;
11004;SDS011;5555;59.622;16.556;2023-02-22T00:25:49;2.83;;;2.53;;
11004;SDS011;5555;59.622;16.556;2023-02-22T00:28:18;2.83;;;2.53;;
11004;SDS011;5555;59.622;16.556;2023-02-22T00:30:44;2.33;;;2.13;;
11004;SDS011;5555;59.622;16.556;2023-02-22T00:33:12;2.37;;;2.17;;
11004;SDS011;5555;59.622;16.556;2023-02-22T00:35:39;2.57;;;2.30;;
11004;SDS011;5555;59.622;16.556;2023-02-22T00:38:05;3.40;;;2.57;;
11004;SDS011;5555;59.622;16.556;2023-02-22T00:40:32;3.27;;;2.50;;
11004;SDS011;5555;59.622;16.556;2023-02-22T00:43:02;2.20;;;2.00;;
11004;SDS011;5555;59.622;16.556;2023-02-22T00:45:30;2.43;;;2.17;;
11004;SDS011;5555;59.622;16.556;2023-02-22T00:47:57;2.37;;;1.93;;
11004;SDS011;5555;59.622;16.556;2023-02-22T00:50:24;2.37;;;2.10;;
11004;SDS011;5555;59.622;16.556;2023-02-22T00:52:51;3.17;;;2.20;;
11004;SDS011;5555;59.622;16.556;2023-02-22T00:55:18;2.37;;;2.00;;
11004;SDS011;5555;59.622;16.556;2023-02-22T00:57:46;2.67;;;2.30;;
11004;SDS011;5555;59.622;16.556;2023-02-22T01:00:20;2.30;;;2.10;;
11004;SDS011;5555;59.622;16.556;2023-02-22T01:02:48;2.47;;;1.97;;
11004;SDS011;5555;59.622;16.556;2023-02-22T01:05:15;2.23;;;1.90;;
11004;SDS011;5555;59.622;16.556;2023-02-22T01:07:43;3.17;;;2.37;;
11004;SDS011;5555;59.622;16.556;2023-02-22T01:10:09;2.53;;;2.00;;
11004;SDS011;5555;59.622;16.556;2023-02-22T01:12:36;2.70;;;2.30;;
11004;SDS011;5555;59.622;16.556;2023-02-22T01:15:02;2.57;;;2.00;;
11004;SDS011;5555;59.622;16.556;2023-02-22T01:17:29;2.73;;;2.07;;
11004;SDS011;5555;59.622;16.556;2023-02-22T01:19:54;2.40;;;2.20;;
11004;SDS011;5555;59.622;16.556;2023-02-22T01:22:20;2.33;;;2.13;;
11004;SDS011;5555;59.622;16.556;2023-02-22T01:24:47;2.83;;;2.43;;
11004;SDS011;5555;59.622;16.556;2023-02-22T01:27:14;2.30;;;2.07;;
11004;SDS011;5555;59.622;16.556;2023-02-22T01:29:40;3.23;;;2.50;;
11004;SDS011;5555;59.622;16.556;2023-02-22T01:32:05;2.83;;;2.20;;
11004;SDS011;5555;59.622;16.556;2023-02-22T01:34:32;3.17;;;2.40;;
11004;SDS011;5555;59.622;16.556;2023-02-22T01:36:58;2.30;;;2.10;;
11004;SDS011;5555;59.622;16.556;2023-02-22T01:39:25;2.63;;;2.23;;
11004;SDS011;5555;59.622;16.556;2023-02-22T01:41:51;2.17;;;1.97;;
11004;SDS011;5555;59.622;16.556;2023-02-22T01:44:33;1.97;;;1.70;;
11004;SDS011;5555;59.622;16.556;2023-02-22T01:47:01;2.83;;;2.53;;
11004;SDS011;5555;59.622;16.556;2023-02-22T01:49:39;2.67;;;2.00;;
11004;SDS011;5555;59.622;16.556;2023-02-22T01:52:09;2.20;;;1.87;;
11004;SDS011;5555;59.622;16.556;2023-02-22T01:54:46;2.17;;;1.90;;
11004;SDS011;5555;59.622;16.556;2023-02-22T01:59:47;2.20;;;1.90;;
11004;SDS011;5555;59.622;16.556;2023-02-22T02:02:16;2.20;;;1.70;;
11004;SDS011;5555;59.622;16.556;2023-02-22T02:04:43;2.20;;;2.00;;
11004;SDS011;5555;59.622;16.556;2023-02-22T02:07:10;2.60;;;1.90;;
11004;SDS011;5555;59.622;16.556;2023-02-22T02:09:43;2.40;;;2.20;;
11004;SDS011;5555;59.622;16.556;2023-02-22T02:12:12;1.90;;;1.70;;
11004;SDS011;5555;59.622;16.556;2023-02-22T02:14:40;2.17;;;1.83;;
11004;SDS011;5555;59.622;16.556;2023-02-22T02:17:13;3.30;;;2.37;;
11004;SDS011;5555;59.622;16.556;2023-02-22T02:31:25;6.03;;;2.10;;
11004;SDS011;5555;59.622;16.556;2023-02-22T02:33:58;2.57;;;1.90;;
11004;SDS011;5555;59.622;16.556;2023-02-22T02:36:57;2.90;;;2.27;;
11004;SDS011;5555;59.622;16.556;2023-02-22T02:39:34;3.60;;;2.00;;
11004;SDS011;5555;59.622;16.556;2023-02-22T02:42:10;2.53;;;2.23;;
11004;SDS011;5555;59.622;16.556;2023-02-22T02:44:48;4.03;;;2.10;;
11004;SDS011;5555;59.622;16.556;2023-02-22T02:47:27;2.93;;;2.23;;
11004;SDS011;5555;59.622;16.556;2023-02-22T02:52:28;3.83;;;2.10;;
11004;SDS011;5555;59.622;16.556;2023-02-22T02:54:55;2.90;;;2.20;;
11004;SDS011;5555;59.622;16.556;2023-02-22T02:57:22;2.50;;;2.03;;
11004;SDS011;5555;59.622;16.556;2023-02-22T02:59:48;2.83;;;1.90;;
11004;SDS011;5555;59.622;16.556;2023-02-22T03:04:56;4.53;;;2.40;;
11004;SDS011;5555;59.622;16.556;2023-02-22T03:07:40;2.60;;;2.00;;
11004;SDS011;5555;59.622;16.556;2023-02-22T03:10:37;2.87;;;2.10;;
11004;SDS011;5555;59.622;16.556;2023-02-22T03:21:28;3.37;;;2.30;;
11004;SDS011;5555;59.622;16.556;2023-02-22T03:29:01;2.77;;;2.50;;
11004;SDS011;5555;59.622;16.556;2023-02-22T03:31:30;4.90;;;2.37;;
11004;SDS011;5555;59.622;16.556;2023-02-22T03:34:03;3.53;;;2.13;;
11004;SDS011;5555;59.622;16.556;2023-02-22T03:36:33;3.97;;;2.00;;
11004;SDS011;5555;59.622;16.556;2023-02-22T03:39:20;3.47;;;2.00;;
11004;SDS011;5555;59.622;16.556;2023-02-22T03:41:52;8.47;;;2.50;;
11004;SDS011;5555;59.622;16.556;2023-02-22T03:44:19;2.77;;;2.17;;
11004;SDS011;5555;59.622;16.556;2023-02-22T03:46:48;2.67;;;1.80;;
11004;SDS011;5555;59.622;16.556;2023-02-22T03:49:26;2.67;;;2.30;;
11004;SDS011;5555;59.622;16.556;2023-02-22T03:52:16;2.27;;;2.00;;
11004;SDS011;5555;59.622;16.556;2023-02-22T03:54:42;2.27;;;2.07;;
11004;SDS011;5555;59.622;16.556;2023-02-22T03:57:13;2.20;;;1.93;;
11004;SDS011;5555;59.622;16.556;2023-02-22T03:59:46;2.17;;;1.97;;
11004;SDS011;5555;59.622;16.556;2023-02-22T04:02:12;2.30;;;2.10;;
11004;SDS011;5555;59.622;16.556;2023-02-22T04:04:37;3.00;;;2.50;;
11004;SDS011;5555;59.622;16.556;2023-02-22T04:07:03;10.37;;;3.10;;
11004;SDS011;5555;59.622;16.556;2023-02-22T04:09:29;2.70;;;2.37;;
11004;SDS011;5555;59.622;16.556;2023-02-22T04:11:54;3.17;;;2.67;;
11004;SDS011;5555;59.622;16.556;2023-02-22T04:14:20;4.17;;;2.53;;
11004;SDS011;5555;59.622;16.556;2023-02-22T04:16:45;9.63;;;3.50;;
11004;SDS011;5555;59.622;16.556;2023-02-22T04:19:11;19.67;;;3.83;;
11004;SDS011;5555;59.622;16.556;2023-02-22T04:21:37;7.30;;;2.37;;
11004;SDS011;5555;59.622;16.556;2023-02-22T04:24:02;2.30;;;1.97;;
11004;SDS011;5555;59.622;16.556;2023-02-22T04:26:28;3.47;;;2.30;;
11004;SDS011;5555;59.622;16.556;2023-02-22T04:28:54;5.60;;;2.33;;
11004;SDS011;5555;59.622;16.556;2023-02-22T04:31:19;2.33;;;2.10;;
11004;SDS011;5555;59.622;16.556;2023-02-22T04:33:45;2.47;;;2.00;;
11004;SDS011;5555;59.622;16.556;2023-02-22T04:36:11;3.43;;;2.20;;
11004;SDS011;5555;59.622;16.556;2023-02-22T04:38:39;2.87;;;2.33;;
11004;SDS011;5555;59.622;16.556;2023-02-22T04:41:05;2.33;;;2.10;;
11004;SDS011;5555;59.622;16.556;2023-02-22T04:43:31;3.60;;;2.67;;
11004;SDS011;5555;59.622;16.556;2023-02-22T04:45:57;3.10;;;2.63;;
11004;SDS011;5555;59.622;16.556;2023-02-22T04:48:22;3.20;;;2.77;;
11004;SDS011;5555;59.622;16.556;2023-02-22T04:50:48;3.03;;;2.30;;
11004;SDS011;5555;59.622;16.556;2023-02-22T04:53:15;2.87;;;2.60;;
11004;SDS011;5555;59.622;16.556;2023-02-22T04:55:40;2.47;;;2.07;;
11004;SDS011;5555;59.622;16.556;2023-02-22T04:58:06;3.03;;;2.60;;
11004;SDS011;5555;59.622;16.556;2023-02-22T05:00:32;3.93;;;2.73;;
11004;SDS011;5555;59.622;16.556;2023-02-22T05:02:57;3.03;;;2.40;;
11004;SDS011;5555;59.622;16.556;2023-02-22T05:05:23;3.00;;;2.60;;
11004;SDS011;5555;59.622;16.556;2023-02-22T05:07:49;2.90;;;2.60;;
11004;SDS011;5555;59.622;16.556;2023-02-22T05:10:14;3.10;;;2.80;;
11004;SDS011;5555;59.622;16.556;2023-02-22T05:12:40;2.83;;;2.57;;
11004;SDS011;5555;59.622;16.556;2023-02-22T05:15:06;2.70;;;2.50;;
11004;SDS011;5555;59.622;16.556;2023-02-22T05:17:33;3.80;;;2.83;;
11004;SDS011;5555;59.622;16.556;2023-02-22T05:19:59;2.70;;;2.40;;
11004;SDS011;5555;59.622;16.556;2023-02-22T05:22:25;5.67;;;2.63;;
11004;SDS011;5555;59.622;16.556;2023-02-22T05:24:51;3.20;;;2.90;;
11004;SDS011;5555;59.622;16.556;2023-02-22T05:27:17;3.33;;;2.60;;
11004;SDS011;5555;59.622;16.556;2023-02-22T05:29:43;3.63;;;2.80;;
11004;SDS011;5555;59.622;16.556;2023-02-22T05:32:09;3.13;;;2.63;;
11004;SDS011;5555;59.622;16.556;2023-02-22T05:34:36;3.10;;;2.80;;
11004;SDS011;5555;59.622;16.556;2023-02-22T05:37:02;4.40;;;2.83;;
11004;SDS011;5555;59.622;16.556;2023-02-22T05:39:28;2.80;;;2.60;;
11004;SDS011;5555;59.622;16.556;2023-02-22T05:41:54;2.80;;;2.60;;
11004;SDS011;5555;59.622;16.556;2023-02-22T05:44:20;3.50;;;2.90;;
11004;SDS011;5555;59.622;16.556;2023-02-22T05:46:45;4.73;;;2.97;;
11004;SDS011;5555;59.622;16.556;2023-02-22T05:49:11;3.50;;;2.60;;
11004;SDS011;5555;59.622;16.556;2023-02-22T05:51:36;4.20;;;2.77;;
11004;SDS011;5555;59.622;16.556;2023-02-22T05:54:02;4.63;;;2.70;;
11004;SDS011;5555;59.622;16.556;2023-02-22T05:56:28;6.90;;;2.97;;
11004;SDS011;5555;59.622;16.556;2023-02-22T05:58:54;4.70;;;3.40;;
11004;SDS011;5555;59.622;16.556;2023-02-22T06:01:21;4.97;;;2.50;;
11004;SDS011;5555;59.622;16.556;2023-02-22T06:03:47;6.07;;;2.87;;
11004;SDS011;5555;59.622;16.556;2023-02-22T06:06:14;3.57;;;2.47;;
11004;SDS011;5555;59.622;16.556;2023-02-22T06:08:41;5.23;;;2.90;;
11004;SDS011;5555;59.622;16.556;2023-02-22T06:11:07;3.97;;;2.90;;
11004;SDS011;5555;59.622;16.556;2023-02-22T06:13:35;3.93;;;3.07;;
11004;SDS011;5555;59.622;16.556;2023-02-22T06:16:01;4.53;;;2.57;;
11004;SDS011;5555;59.622;16.556;2023-02-22T06:18:27;3.10;;;2.73;;
11004;SDS011;5555;59.622;16.556;2023-02-22T06:20:55;3.40;;;2.57;;
11004;SDS011;5555;59.622;16.556;2023-02-22T06:23:21;3.03;;;2.63;;
11004;SDS011;5555;59.622;16.556;2023-02-22T06:25:47;3.43;;;2.60;;
11004;SDS011;5555;59.622;16.556;2023-02-22T06:28:13;3.10;;;2.63;;
11004;SDS011;5555;59.622;16.556;2023-02-22T06:30:39;4.03;;;2.53;;
11004;SDS011;5555;59.622;16.556;2023-02-22T06:33:06;3.90;;;2.80;;
11004;SDS011;5555;59.622;16.556;2023-02-22T06:35:33;4.60;;;3.40;;
11004;SDS011;5555;59.622;16.556;2023-02-22T06:37:58;3.00;;;2.70;;
11004;SDS011;5555;59.622;16.556;2023-02-22T06:40:24;3.07;;;2.50;;
11004;SDS011;5555;59.622;16.556;2023-02-22T06:42:53;4.00;;;3.30;;
11004;SDS011;5555;59.622;16.556;2023-02-22T06:45:20;4.40;;;3.00;;
11004;SDS011;5555;59.622;16.556;2023-02-22T06:47:46;2.70;;;2.50;;
11004;SDS011;5555;59.622;16.556;2023-02-22T06:50:24;3.57;;;3.10;;
11004;SDS011;5555;59.622;16.556;2023-02-22T06:52:53;2.97;;;2.57;;
11004;SDS011;5555;59.622;16.556;2023-02-22T06:55:25;3.00;;;2.63;;
11004;SDS011;5555;59.622;16.556;2023-02-22T06:57:52;3.50;;;2.90;;
11004;SDS011;5555;59.622;16.556;2023-02-22T07:00:19;3.53;;;2.77;;
11004;SDS011;5555;59.622;16.556;2023-02-22T07:02:46;3.80;;;2.87;;
11004;SDS011;5555;59.622;16.556;2023-02-22T07:05:12;4.67;;;2.53;;
11004;SDS011;5555;59.622;16.556;2023-02-22T07:07:40;2.60;;;2.33;;
11004;SDS011;5555;59.622;16.556;2023-02-22T07:10:06;3.40;;;2.50;;
11004;SDS011;5555;59.622;16.556;2023-02-22T07:12:33;2.73;;;2.50;;
11004;SDS011;5555;59.622;16.556;2023-02-22T07:14:59;2.87;;;2.30;;
11004;SDS011;5555;59.622;16.556;2023-02-22T07:17:25;3.13;;;2.73;;
11004;SDS011;5555;59.622;16.556;2023-02-22T07:19:51;4.63;;;3.00;;
11004;SDS011;5555;59.622;16.556;2023-02-22T07:22:16;3.43;;;2.53;;
11004;SDS011;5555;59.622;16.556;2023-02-22T07:24:42;4.53;;;2.70;;
11004;SDS011;5555;59.622;16.556;2023-02-22T07:27:08;6.80;;;2.60;;
11004;SDS011;5555;59.622;16.556;2023-02-22T07:29:33;3.73;;;2.57;;
11004;SDS011;5555;59.622;16.556;2023-02-22T07:32:00;3.37;;;2.63;;
11004;SDS011;5555;59.622;16.556;2023-02-22T07:34:26;8.13;;;3.50;;
11004;SDS011;5555;59.622;16.556;2023-02-22T07:36:52;3.83;;;2.60;;
11004;SDS011;5555;59.622;16.556;2023-02-22T07:39:18;4.00;;;2.83;;
11004;SDS011;5555;59.622;16.556;2023-02-22T07:41:43;6.23;;;2.63;;
11004;SDS011;5555;59.622;16.556;2023-02-22T07:44:09;3.93;;;2.70;;
11004;SDS011;5555;59.622;16.556;2023-02-22T07:46:34;4.53;;;2.70;;
11004;SDS011;5555;59.622;16.556;2023-02-22T07:49:00;4.77;;;2.70;;
11004;SDS011;5555;59.622;16.556;2023-02-22T07:51:26;4.00;;;2.63;;
11004;SDS011;5555;59.622;16.556;2023-02-22T07:53:51;6.57;;;2.60;;
11004;SDS011;5555;59.622;16.556;2023-02-22T07:56:17;3.37;;;2.50;;
11004;SDS011;5555;59.622;16.556;2023-02-22T07:58:43;5.53;;;2.70;;
11004;SDS011;5555;59.622;16.556;2023-02-22T08:01:08;5.70;;;2.77;;
11004;SDS011;5555;59.622;16.556;2023-02-22T08:03:34;8.67;;;3.10;;
11004;SDS011;5555;59.622;16.556;2023-02-22T08:06:01;3.27;;;2.37;;
11004;SDS011;5555;59.622;16.556;2023-02-22T08:08:28;3.90;;;3.03;;
11004;SDS011;5555;59.622;16.556;2023-02-22T08:10:54;4.57;;;3.00;;
11004;SDS011;5555;59.622;16.556;2023-02-22T08:13:20;4.57;;;2.70;;
11004;SDS011;5555;59.622;16.556;2023-02-22T08:15:48;5.53;;;2.60;;
11004;SDS011;5555;59.622;16.556;2023-02-22T08:18:16;4.83;;;2.73;;
11004;SDS011;5555;59.622;16.556;2023-02-22T08:20:43;3.50;;;2.90;;
11004;SDS011;5555;59.622;16.556;2023-02-22T08:23:11;6.20;;;2.67;;
11004;SDS011;5555;59.622;16.556;2023-02-22T08:25:38;3.70;;;2.80;;
11004;SDS011;5555;59.622;16.556;2023-02-22T08:28:05;4.93;;;2.83;;
11004;SDS011;5555;59.622;16.556;2023-02-22T08:30:41;4.50;;;2.53;;
11004;SDS011;5555;59.622;16.556;2023-02-22T08:33:07;3.93;;;2.43;;
11004;SDS011;5555;59.622;16.556;2023-02-22T08:35:35;2.60;;;2.40;;
11004;SDS011;5555;59.622;16.556;2023-02-22T08:38:02;3.10;;;2.80;;
11004;SDS011;5555;59.622;16.556;2023-02-22T08:40:30;4.17;;;2.90;;
11004;SDS011;5555;59.622;16.556;2023-02-22T08:42:57;3.13;;;2.80;;
11004;SDS011;5555;59.622;16.556;2023-02-22T08:45:23;3.00;;;2.77;;
11004;SDS011;5555;59.622;16.556;2023-02-22T08:47:49;2.50;;;2.30;;
11004;SDS011;5555;59.622;16.556;2023-02-22T08:50:16;3.03;;;2.73;;
11004;SDS011;5555;59.622;16.556;2023-02-22T08:52:44;3.90;;;3.00;;
11004;SDS011;5555;59.622;16.556;2023-02-22T08:55:09;4.13;;;3.03;;
11004;SDS011;5555;59.622;16.556;2023-02-22T08:57:35;3.60;;;3.07;;
11004;SDS011;5555;59.622;16.556;2023-02-22T09:00:01;3.10;;;2.80;;
11004;SDS011;5555;59.622;16.556;2023-02-22T09:02:28;3.23;;;2.77;;
11004;SDS011;5555;59.622;16.556;2023-02-22T09:04:54;2.93;;;2.60;;
11004;SDS011;5555;59.622;16.556;2023-02-22T09:07:20;3.27;;;2.97;;
11004;SDS011;5555;59.622;16.556;2023-02-22T09:09:45;3.40;;;3.10;;
11004;SDS011;5555;59.622;16.556;2023-02-22T09:12:11;3.83;;;3.00;;
11004;SDS011;5555;59.622;16.556;2023-02-22T09:14:37;3.43;;;3.10;;
11004;SDS011;5555;59.622;16.556;2023-02-22T09:17:02;3.47;;;3.17;;
11004;SDS011;5555;59.622;16.556;2023-02-22T09:19:28;4.93;;;3.47;;
11004;SDS011;5555;59.622;16.556;2023-02-22T09:21:54;5.40;;;3.60;;
11004;SDS011;5555;59.622;16.556;2023-02-22T09:24:21;5.30;;;3.73;;
11004;SDS011;5555;59.622;16.556;2023-02-22T09:26:47;6.40;;;3.77;;
11004;SDS011;5555;59.622;16.556;2023-02-22T09:29:18;4.37;;;3.60;;
11004;SDS011;5555;59.622;16.556;2023-02-22T09:31:46;4.13;;;3.67;;
11004;SDS011;5555;59.622;16.556;2023-02-22T09:34:13;3.63;;;3.27;;
11004;SDS011;5555;59.622;16.556;2023-02-22T09:36:40;4.27;;;3.60;;
11004;SDS011;5555;59.622;16.556;2023-02-22T09:39:07;4.43;;;4.03;;
11004;SDS011;5555;59.622;16.556;2023-02-22T09:44:21;4.07;;;3.67;;
11004;SDS011;5555;59.622;16.556;2023-02-22T09:46:49;4.80;;;4.30;;
11004;SDS011;5555;59.622;16.556;2023-02-22T09:49:36;5.60;;;4.13;;
11004;SDS011;5555;59.622;16.556;2023-02-22T09:55:07;5.87;;;4.23;;
11004;SDS011;5555;59.622;16.556;2023-02-22T09:57:40;8.00;;;4.03;;
11004;SDS011;5555;59.622;16.556;2023-02-22T10:05:31;4.60;;;3.77;;
11004;SDS011;5555;59.622;16.556;2023-02-22T10:08:04;4.03;;;3.73;;
11004;SDS011;5555;59.622;16.556;2023-02-22T10:10:37;5.43;;;4.40;;
11004;SDS011;5555;59.622;16.556;2023-02-22T10:21:16;5.17;;;4.47;;
11004;SDS011;5555;59.622;16.556;2023-02-22T10:24:12;6.10;;;4.53;;
11004;SDS011;5555;59.622;16.556;2023-02-22T10:26:50;5.10;;;4.60;;
11004;SDS011;5555;59.622;16.556;2023-02-22T10:32:05;5.97;;;5.07;;
11004;SDS011;5555;59.622;16.556;2023-02-22T10:34:43;5.87;;;5.27;;
11004;SDS011;5555;59.622;16.556;2023-02-22T10:37:18;5.47;;;4.80;;
11004;SDS011;5555;59.622;16.556;2023-02-22T10:40:11;5.20;;;4.33;;
11004;SDS011;5555;59.622;16.556;2023-02-22T10:42:47;4.33;;;3.93;;
11004;SDS011;5555;59.622;16.556;2023-02-22T10:45:21;4.47;;;4.07;;
11004;SDS011;5555;59.622;16.556;2023-02-22T10:47:54;6.13;;;5.27;;
11004;SDS011;5555;59.622;16.556;2023-02-22T10:50:23;4.50;;;4.10;;
11004;SDS011;5555;59.622;16.556;2023-02-22T10:52:51;4.20;;;3.73;;
11004;SDS011;5555;59.622;16.556;2023-02-22T10:55:19;4.70;;;3.87;;
11004;SDS011;5555;59.622;16.556;2023-02-22T10:57:45;5.17;;;3.90;;
11004;SDS011;5555;59.622;16.556;2023-02-22T11:00:21;5.17;;;4.20;;
11004;SDS011;5555;59.622;16.556;2023-02-22T11:03:19;4.17;;;3.47;;
11004;SDS011;5555;59.622;16.556;2023-02-22T11:05:46;4.67;;;3.87;;
11004;SDS011;5555;59.622;16.556;2023-02-22T11:08:29;4.80;;;4.00;;
11004;SDS011;5555;59.622;16.556;2023-02-22T11:10:59;3.97;;;3.67;;
11004;SDS011;5555;59.622;16.556;2023-02-22T11:13:37;3.60;;;3.30;;
11004;SDS011;5555;59.622;16.556;2023-02-22T11:16:17;5.87;;;3.70;;
11004;SDS011;5555;59.622;16.556;2023-02-22T11:18:59;4.47;;;3.40;;
11004;SDS011;5555;59.622;16.556;2023-02-22T11:21:41;3.67;;;3.27;;
11004;SDS011;5555;59.622;16.556;2023-02-22T11:24:09;3.70;;;3.40;;
11004;SDS011;5555;59.622;16.556;2023-02-22T11:26:44;3.60;;;3.30;;
11004;SDS011;5555;59.622;16.556;2023-02-22T11:29:17;3.20;;;2.90;;
11004;SDS011;5555;59.622;16.556;2023-02-22T11:31:51;3.47;;;3.10;;
11004;SDS011;5555;59.622;16.556;2023-02-22T11:34:26;3.40;;;3.10;;
11004;SDS011;5555;59.622;16.556;2023-02-22T11:37:26;4.30;;;3.47;;
11004;SDS011;5555;59.622;16.556;2023-02-22T11:42:36;6.67;;;3.40;;
11004;SDS011;5555;59.622;16.556;2023-02-22T11:47:51;5.77;;;3.80;;
11004;SDS011;5555;59.622;16.556;2023-02-22T11:53:37;5.07;;;3.30;;
11004;SDS011;5555;59.622;16.556;2023-02-22T11:59:27;2.93;;;2.50;;
11004;SDS011;5555;59.622;16.556;2023-02-22T12:05:01;3.93;;;2.53;;
11004;SDS011;5555;59.622;16.556;2023-02-22T12:10:15;2.63;;;2.43;;
11004;SDS011;5555;59.622;16.556;2023-02-22T12:21:27;4.37;;;2.70;;
11004;SDS011;5555;59.622;16.556;2023-02-22T12:23:58;3.00;;;2.70;;
11004;SDS011;5555;59.622;16.556;2023-02-22T12:26:41;2.93;;;2.60;;
11004;SDS011;5555;59.622;16.556;2023-02-22T12:29:10;2.47;;;2.27;;
11004;SDS011;5555;59.622;16.556;2023-02-22T12:31:54;3.20;;;2.90;;
11004;SDS011;5555;59.622;16.556;2023-02-22T12:34:28;3.90;;;2.67;;
11004;SDS011;5555;59.622;16.556;2023-02-22T12:37:02;3.63;;;2.27;;
11004;SDS011;5555;59.622;16.556;2023-02-22T12:39:51;6.67;;;3.17;;
11004;SDS011;5555;59.622;16.556;2023-02-22T12:42:44;2.77;;;2.57;;
11004;SDS011;5555;59.622;16.556;2023-02-22T12:50:46;3.23;;;2.43;;
11004;SDS011;5555;59.622;16.556;2023-02-22T12:53:30;4.33;;;2.97;;
11004;SDS011;5555;59.622;16.556;2023-02-22T12:56:15;6.07;;;2.80;;
11004;SDS011;5555;59.622;16.556;2023-02-22T12:58:57;4.60;;;2.90;;
11004;SDS011;5555;59.622;16.556;2023-02-22T13:01:37;3.27;;;2.67;;
11004;SDS011;5555;59.622;16.556;2023-02-22T13:04:05;7.20;;;2.50;;
11004;SDS011;5555;59.622;16.556;2023-02-22T13:17:57;2.90;;;2.10;;
11004;SDS011;5555;59.622;16.556;2023-02-22T13:20:47;2.60;;;2.40;;
11004;SDS011;5555;59.622;16.556;2023-02-22T13:26:27;4.57;;;2.70;;
11004;SDS011;5555;59.622;16.556;2023-02-22T13:29:03;3.40;;;2.57;;
11004;SDS011;5555;59.622;16.556;2023-02-22T13:36:53;3.90;;;2.90;;
11004;SDS011;5555;59.622;16.556;2023-02-22T13:39:34;3.20;;;2.60;;
11004;SDS011;5555;59.622;16.556;2023-02-22T13:53:28;4.60;;;3.30;;
11004;SDS011;5555;59.622;16.556;2023-02-22T13:56:01;6.53;;;3.27;;
11004;SDS011;5555;59.622;16.556;2023-02-22T13:58:27;6.23;;;3.40;;
11004;SDS011;5555;59.622;16.556;2023-02-22T14:03:31;6.17;;;3.10;;
11004;SDS011;5555;59.622;16.556;2023-02-22T14:06:05;5.30;;;3.53;;
11004;SDS011;5555;59.622;16.556;2023-02-22T14:11:01;5.83;;;3.63;;
11004;SDS011;5555;59.622;16.556;2023-02-22T14:16:33;3.77;;;2.60;;
11004;SDS011;5555;59.622;16.556;2023-02-22T14:19:19;3.83;;;2.83;;
11004;SDS011;5555;59.622;16.556;2023-02-22T14:22:02;4.93;;;3.17;;
11004;SDS011;5555;59.622;16.556;2023-02-22T14:24:43;3.37;;;3.07;;
11004;SDS011;5555;59.622;16.556;2023-02-22T14:27:10;4.03;;;3.20;;
11004;SDS011;5555;59.622;16.556;2023-02-22T14:29:56;5.43;;;3.40;;
11004;SDS011;5555;59.622;16.556;2023-02-22T14:32:29;4.70;;;3.30;;
11004;SDS011;5555;59.622;16.556;2023-02-22T14:35:19;4.93;;;3.27;;
11004;SDS011;5555;59.622;16.556;2023-02-22T14:37:53;6.00;;;3.43;;
11004;SDS011;5555;59.622;16.556;2023-02-22T14:40:28;3.30;;;3.00;;
11004;SDS011;5555;59.622;16.556;2023-02-22T14:43:37;6.80;;;3.20;;
11004;SDS011;5555;59.622;16.556;2023-02-22T14:45:50;5.63;;;3.43;;
11004;SDS011;5555;59.622;16.556;2023-02-22T14:48:23;7.93;;;3.43;;
11004;SDS011;5555;59.622;16.556;2023-02-22T14:56:17;4.37;;;3.97;;
11004;SDS011;5555;59.622;16.556;2023-02-22T14:58:51;4.13;;;3.67;;
11004;SDS011;5555;59.622;16.556;2023-02-22T15:01:27;5.43;;;3.70;;
11004;SDS011;5555;59.622;16.556;2023-02-22T15:04:17;4.30;;;3.67;;
11004;SDS011;5555;59.622;16.556;2023-02-22T15:06:55;5.10;;;3.70;;
11004;SDS011;5555;59.622;16.556;2023-02-22T15:09:23;6.10;;;4.03;;
11004;SDS011;5555;59.622;16.556;2023-02-22T15:11:54;5.47;;;4.17;;
11004;SDS011;5555;59.622;16.556;2023-02-22T15:14:29;3.90;;;3.57;;
11004;SDS011;5555;59.622;16.556;2023-02-22T15:17:01;4.00;;;3.70;;
11004;SDS011;5555;59.622;16.556;2023-02-22T15:19:41;5.80;;;3.80;;
11004;SDS011;5555;59.622;16.556;2023-02-22T15:22:13;5.50;;;3.53;;
11004;SDS011;5555;59.622;16.556;2023-02-22T15:25:00;4.80;;;3.70;;
11004;SDS011;5555;59.622;16.556;2023-02-22T15:27:29;5.77;;;3.90;;
11004;SDS011;5555;59.622;16.556;2023-02-22T15:30:00;4.43;;;3.30;;
11004;SDS011;5555;59.622;16.556;2023-02-22T15:32:41;4.80;;;3.50;;
11004;SDS011;5555;59.622;16.556;2023-02-22T15:35:11;5.70;;;3.70;;
11004;SDS011;5555;59.622;16.556;2023-02-22T15:37:44;4.67;;;3.57;;
11004;SDS011;5555;59.622;16.556;2023-02-22T15:40:12;4.73;;;4.03;;
11004;SDS011;5555;59.622;16.556;2023-02-22T15:42:42;7.30;;;3.73;;
11004;SDS011;5555;59.622;16.556;2023-02-22T15:45:13;5.33;;;3.83;;
11004;SDS011;5555;59.622;16.556;2023-02-22T15:47:41;5.10;;;3.43;;
11004;SDS011;5555;59.622;16.556;2023-02-22T15:50:21;4.70;;;3.17;;
11004;SDS011;5555;59.622;16.556;2023-02-22T15:53:07;4.67;;;3.30;;
11004;SDS011;5555;59.622;16.556;2023-02-22T15:55:55;4.83;;;3.57;;
11004;SDS011;5555;59.622;16.556;2023-02-22T15:58:24;6.63;;;3.60;;
11004;SDS011;5555;59.622;16.556;2023-02-22T16:01:00;4.27;;;3.03;;
11004;SDS011;5555;59.622;16.556;2023-02-22T16:03:34;5.27;;;3.10;;
11004;SDS011;5555;59.622;16.556;2023-02-22T16:06:07;5.13;;;3.20;;
11004;SDS011;5555;59.622;16.556;2023-02-22T16:08:40;3.40;;;3.10;;
11004;SDS011;5555;59.622;16.556;2023-02-22T16:14:03;5.10;;;3.50;;
11004;SDS011;5555;59.622;16.556;2023-02-22T16:16:31;3.97;;;3.40;;
11004;SDS011;5555;59.622;16.556;2023-02-22T16:19:20;4.10;;;3.13;;
11004;SDS011;5555;59.622;16.556;2023-02-22T16:21:53;6.57;;;3.37;;
11004;SDS011;5555;59.622;16.556;2023-02-22T16:24:27;6.50;;;3.37;;
11004;SDS011;5555;59.622;16.556;2023-02-22T16:29:39;6.47;;;3.67;;
11004;SDS011;5555;59.622;16.556;2023-02-22T16:32:04;8.37;;;3.47;;
11004;SDS011;5555;59.622;16.556;2023-02-22T16:34:30;3.37;;;2.90;;
11004;SDS011;5555;59.622;16.556;2023-02-22T16:36:56;4.73;;;3.13;;
11004;SDS011;5555;59.622;16.556;2023-02-22T16:39:23;3.20;;;2.83;;
11004;SDS011;5555;59.622;16.556;2023-02-22T16:41:51;6.30;;;3.03;;
11004;SDS011;5555;59.622;16.556;2023-02-22T16:44:19;6.53;;;3.17;;
11004;SDS011;5555;59.622;16.556;2023-02-22T16:46:44;4.37;;;3.27;;
11004;SDS011;5555;59.622;16.556;2023-02-22T16:49:11;6.77;;;3.20;;
11004;SDS011;5555;59.622;16.556;2023-02-22T16:51:43;5.33;;;3.47;;
11004;SDS011;5555;59.622;16.556;2023-02-22T16:54:19;4.33;;;2.70;;
11004;SDS011;5555;59.622;16.556;2023-02-22T16:56:50;3.80;;;3.30;;
11004;SDS011;5555;59.622;16.556;2023-02-22T16:59:16;4.20;;;3.40;;
11004;SDS011;5555;59.622;16.556;2023-02-22T17:01:42;4.40;;;2.97;;
11004;SDS011;5555;59.622;16.556;2023-02-22T17:04:13;6.00;;;3.17;;
11004;SDS011;5555;59.622;16.556;2023-02-22T17:06:40;5.03;;;3.37;;
11004;SDS011;5555;59.622;16.556;2023-02-22T17:09:05;3.53;;;3.10;;
11004;SDS011;5555;59.622;16.556;2023-02-22T17:11:31;5.50;;;3.50;;
11004;SDS011;5555;59.622;16.556;2023-02-22T17:13:59;5.17;;;3.30;;
11004;SDS011;5555;59.622;16.556;2023-02-22T17:16:24;4.57;;;3.53;;
11004;SDS011;5555;59.622;16.556;2023-02-22T17:18:50;8.00;;;2.93;;
11004;SDS011;5555;59.622;16.556;2023-02-22T17:21:15;5.90;;;3.17;;
11004;SDS011;5555;59.622;16.556;2023-02-22T17:23:41;4.20;;;3.20;;